createdAt,value
2022-10-05T00:00:03.812Z,4.53
2022-10-05T00:04:18.090Z,4.55
2022-10-05T00:07:38.964Z,4.58
2022-10-05T00:11:34.362Z,4.59
2022-10-05T00:15:00.948Z,4.58
2022-10-05T00:18:53.105Z,4.55
2022-10-05T00:22:17.247Z,4.53
2022-10-05T00:25:51.194Z,4.56
2022-10-05T00:29:48.205Z,4.62
2022-10-05T00:33:08.852Z,4.68
2022-10-05T00:36:46.482Z,4.69
2022-10-05T00:40:39.246Z,4.67
2022-10-05T00:44:26.740Z,4.62
2022-10-05T00:48:33.325Z,4.62
2022-10-05T00:52:28.898Z,4.61
2022-10-05T00:56:07.635Z,4.62
2022-10-05T00:59:48.950Z,4.62
2022-10-05T01:03:19.056Z,4.60
2022-10-05T01:07:25.142Z,4.54
2022-10-05T01:11:06.095Z,4.54
2022-10-05T01:14:31.753Z,4.56
2022-10-05T01:18:10.075Z,4.55
2022-10-05T01:21:57.316Z,4.56
2022-10-05T01:25:46.605Z,4.54
2022-10-05T01:29:29.750Z,4.55
2022-10-05T01:33:01.721Z,4.58
2022-10-05T01:36:49.905Z,4.62
2022-10-05T01:40:16.143Z,4.65
2022-10-05T01:43:57.013Z,4.60
2022-10-05T01:47:38.697Z,4.55
2022-10-05T01:51:31.116Z,4.47
2022-10-05T01:55:07.805Z,4.48
2022-10-05T01:58:47.004Z,4.51
2022-10-05T02:02:12.366Z,4.52
2022-10-05T02:06:21.906Z,4.55
2022-10-05T02:10:03.158Z,4.54
2022-10-05T02:13:41.449Z,4.52
2022-10-05T02:17:15.258Z,4.54
2022-10-05T02:20:43.390Z,4.58
2022-10-05T02:25:07.139Z,4.63
2022-10-05T02:28:36.184Z,4.67
2022-10-05T02:32:12.738Z,4.73
2022-10-05T02:36:32.782Z,4.78
2022-10-05T02:40:12.712Z,4.86
2022-10-05T02:44:08.421Z,4.94
2022-10-05T02:47:47.316Z,5.02
2022-10-05T02:51:23.095Z,5.10
2022-10-05T02:54:48.429Z,5.13
2022-10-05T02:58:57.378Z,5.10
2022-10-05T03:02:27.869Z,5.07
2022-10-05T03:06:05.983Z,5.08
2022-10-05T03:10:05.119Z,5.05
2022-10-05T03:13:55.215Z,5.09
2022-10-05T03:17:21.135Z,5.12
2022-10-05T03:21:27.086Z,5.14
2022-10-05T03:25:20.718Z,5.09
2022-10-05T03:29:20.341Z,4.98
2022-10-05T03:33:30.170Z,4.90
2022-10-05T03:37:01.167Z,4.89
2022-10-05T03:40:53.834Z,4.90
2022-10-05T03:44:35.333Z,4.89
2022-10-05T03:48:06.698Z,4.89
2022-10-05T03:51:47.511Z,4.84
2022-10-05T03:55:26.378Z,4.78
2022-10-05T03:59:12.687Z,4.76
2022-10-05T04:02:42.876Z,4.82
2022-10-05T04:06:18.697Z,4.88
2022-10-05T04:09:51.588Z,4.90
2022-10-05T04:13:34.178Z,4.87
2022-10-05T04:17:34.341Z,4.86
2022-10-05T04:21:05.135Z,4.88
2022-10-05T04:25:17.159Z,4.90
2022-10-05T04:29:07.116Z,4.97
2022-10-05T04:32:55.124Z,4.99
2022-10-05T04:36:36.758Z,5.02
2022-10-05T04:40:34.114Z,5.04
2022-10-05T04:44:11.077Z,5.07
2022-10-05T04:47:48.365Z,5.07
2022-10-05T04:51:38.551Z,5.07
2022-10-05T04:55:54.018Z,5.12
2022-10-05T04:59:43.260Z,5.18
2022-10-05T05:03:42.657Z,5.20
2022-10-05T05:07:33.698Z,5.23
2022-10-05T05:11:24.308Z,5.26
2022-10-05T05:15:21.911Z,5.30
2022-10-05T05:19:22.004Z,5.33
2022-10-05T05:22:57.866Z,5.41
2022-10-05T05:27:02.202Z,5.49
2022-10-05T05:30:49.710Z,5.57
2022-10-05T05:35:17.587Z,5.62
2022-10-05T05:39:04.502Z,5.66
2022-10-05T05:42:29.497Z,5.73
2022-10-05T05:46:38.886Z,5.78
2022-10-05T05:50:15.941Z,5.86
2022-10-05T05:54:19.355Z,5.93
2022-10-05T05:57:50.083Z,6.03
2022-10-05T06:01:44.498Z,6.12
2022-10-05T06:05:32.390Z,6.18
2022-10-05T06:09:19.595Z,6.24
2022-10-05T06:12:50.502Z,6.32
2022-10-05T06:16:27.163Z,6.41
2022-10-05T06:20:37.686Z,6.51
2022-10-05T06:24:22.780Z,6.62
2022-10-05T06:28:08.434Z,6.72
2022-10-05T06:31:46.989Z,6.81
2022-10-05T06:35:53.464Z,6.89
2022-10-05T06:39:46.289Z,6.99
2022-10-05T06:43:40.801Z,7.11
2022-10-05T06:47:53.845Z,7.29
2022-10-05T06:52:03.368Z,7.46
2022-10-05T06:56:00.158Z,7.64
2022-10-05T06:59:54.741Z,7.82
2022-10-05T07:03:57.949Z,8.01
2022-10-05T07:07:51.795Z,8.18
2022-10-05T07:11:56.422Z,8.29
2022-10-05T07:15:38.165Z,8.44
2022-10-05T07:19:11.427Z,8.58
2022-10-05T07:22:55.366Z,8.78
2022-10-05T07:26:47.194Z,9.01
2022-10-05T07:30:15.095Z,9.22
2022-10-05T07:34:28.445Z,9.40
2022-10-05T07:37:57.349Z,9.57
2022-10-05T07:41:47.960Z,9.71
2022-10-05T07:45:50.776Z,9.84
2022-10-05T07:49:52.209Z,10.00
2022-10-05T07:53:37.392Z,10.13
2022-10-05T07:57:04.934Z,10.26
2022-10-05T08:01:04.052Z,10.40
2022-10-05T08:04:54.811Z,10.54
2022-10-05T08:08:31.425Z,10.70
2022-10-05T08:12:32.754Z,10.89
2022-10-05T08:15:58.133Z,11.10
2022-10-05T08:19:43.503Z,11.27
2022-10-05T08:23:25.334Z,11.45
2022-10-05T08:27:02.291Z,11.67
2022-10-05T08:30:23.894Z,11.88
2022-10-05T08:34:53.602Z,12.07
2022-10-05T08:38:18.732Z,12.32
2022-10-05T08:42:00.080Z,12.46
2022-10-05T08:45:36.825Z,12.53
2022-10-05T08:49:10.630Z,12.63
2022-10-05T08:53:38.043Z,12.72
2022-10-05T08:57:07.691Z,12.86
2022-10-05T09:01:13.050Z,13.04
2022-10-05T09:04:52.891Z,13.19
2022-10-05T09:08:35.504Z,13.26
2022-10-05T09:12:09.538Z,13.32
2022-10-05T09:16:02.729Z,13.42
2022-10-05T09:19:38.919Z,13.60
2022-10-05T09:23:17.331Z,13.79
2022-10-05T09:27:10.148Z,13.99
2022-10-05T09:31:08.241Z,14.23
2022-10-05T09:34:30.681Z,14.29
2022-10-05T09:38:25.064Z,14.32
2022-10-05T09:42:17.383Z,14.40
2022-10-05T09:46:16.346Z,14.53
2022-10-05T09:50:15.440Z,14.61
2022-10-05T09:54:03.022Z,14.72
2022-10-05T09:57:31.739Z,14.85
2022-10-05T10:01:47.873Z,14.90
2022-10-05T10:05:14.829Z,15.03
2022-10-05T10:09:16.998Z,15.12
2022-10-05T10:13:16.118Z,15.20
2022-10-05T10:16:59.539Z,15.34
2022-10-05T10:21:13.867Z,15.53
2022-10-05T10:25:12.247Z,15.61
2022-10-05T10:29:32.400Z,15.72
2022-10-05T10:33:01.938Z,15.72
2022-10-05T10:36:52.250Z,15.69
2022-10-05T10:40:35.116Z,15.65
2022-10-05T10:44:25.205Z,15.70
2022-10-05T10:47:57.022Z,15.80
2022-10-05T10:51:45.248Z,15.81
2022-10-05T10:55:22.005Z,15.86
2022-10-05T10:59:02.004Z,15.86
2022-10-05T11:03:19.792Z,15.92
2022-10-05T11:07:18.668Z,16.03
2022-10-05T11:10:48.801Z,16.05
2022-10-05T11:14:31.911Z,16.05
2022-10-05T11:18:20.187Z,16.08
2022-10-05T11:22:04.566Z,16.15
2022-10-05T11:25:44.505Z,16.28
2022-10-05T11:29:43.784Z,16.41
2022-10-05T11:33:44.162Z,16.44
2022-10-05T11:37:56.874Z,16.61
2022-10-05T11:42:03.499Z,16.72
2022-10-05T11:45:55.558Z,16.81
2022-10-05T11:49:26.608Z,16.83
2022-10-05T11:53:07.039Z,16.92
2022-10-05T11:56:44.925Z,16.95
2022-10-05T12:00:33.789Z,16.91
2022-10-05T12:04:20.008Z,16.88
2022-10-05T12:07:56.718Z,16.90
2022-10-05T12:11:46.505Z,16.90
2022-10-05T12:15:53.032Z,16.94
2022-10-05T12:19:27.276Z,17.07
2022-10-05T12:23:17.887Z,17.27
2022-10-05T12:26:55.245Z,17.22
2022-10-05T12:30:28.827Z,17.08
2022-10-05T12:34:05.575Z,16.94
2022-10-05T12:38:02.220Z,16.86
2022-10-05T12:41:53.472Z,16.73
2022-10-05T12:45:59.339Z,16.60
2022-10-05T12:49:57.837Z,16.43
2022-10-05T12:53:48.693Z,16.32
2022-10-05T12:57:35.570Z,16.22
2022-10-05T13:01:01.546Z,16.14
2022-10-05T13:05:09.980Z,16.13
2022-10-05T13:08:50.868Z,16.20
2022-10-05T13:12:29.962Z,16.51
2022-10-05T13:16:04.883Z,16.76
2022-10-05T13:19:56.536Z,16.88
2022-10-05T13:23:39.362Z,16.87
2022-10-05T13:27:40.560Z,16.91
2022-10-05T13:31:29.771Z,16.98
2022-10-05T13:35:06.732Z,17.01
2022-10-05T13:39:03.662Z,17.23
2022-10-05T13:42:52.806Z,18.42
2022-10-05T13:46:28.705Z,19.24
2022-10-05T13:50:00.376Z,20.39
2022-10-05T13:54:05.147Z,20.34
2022-10-05T13:57:35.316Z,20.09
2022-10-05T14:01:08.940Z,19.91
2022-10-05T14:05:00.903Z,19.71
2022-10-05T14:08:52.047Z,19.62
2022-10-05T14:12:18.799Z,19.73
2022-10-05T14:16:04.950Z,19.30
2022-10-05T14:19:32.586Z,18.93
2022-10-05T14:23:18.477Z,18.87
2022-10-05T14:27:31.040Z,19.20
2022-10-05T14:30:59.356Z,19.00
2022-10-05T14:34:39.425Z,18.48
2022-10-05T14:38:29.955Z,18.05
2022-10-05T14:41:51.119Z,17.72
2022-10-05T14:46:02.899Z,17.46
2022-10-05T14:50:13.350Z,17.21
2022-10-05T14:53:43.537Z,16.96
2022-10-05T14:57:39.792Z,16.80
2022-10-05T15:01:14.859Z,16.60
2022-10-05T15:05:37.461Z,16.42
2022-10-05T15:09:26.731Z,16.19
2022-10-05T15:12:52.879Z,16.01
2022-10-05T15:16:51.102Z,15.90
2022-10-05T15:20:43.155Z,15.84
2022-10-05T15:24:09.441Z,15.64
2022-10-05T15:28:18.962Z,15.53
2022-10-05T15:31:39.956Z,15.40
2022-10-05T15:35:48.992Z,15.31
2022-10-05T15:39:22.205Z,15.23
2022-10-05T15:42:46.715Z,15.16
2022-10-05T15:46:46.929Z,15.10
2022-10-05T15:50:28.480Z,15.00
2022-10-05T15:54:16.742Z,14.90
2022-10-05T15:58:14.894Z,14.81
2022-10-05T16:02:00.860Z,14.72
2022-10-05T16:06:05.227Z,14.63
2022-10-05T16:10:00.955Z,14.54
2022-10-05T16:13:39.871Z,14.45
2022-10-05T16:17:28.756Z,14.34
2022-10-05T16:20:53.524Z,14.24
2022-10-05T16:24:54.954Z,14.19
2022-10-05T16:29:03.688Z,14.12
2022-10-05T16:32:33.996Z,13.99
2022-10-05T16:36:31.394Z,13.94
2022-10-05T16:39:52.029Z,13.87
2022-10-05T16:43:54.546Z,13.83
2022-10-05T16:47:42.779Z,13.75
2022-10-05T16:51:30.698Z,13.67
2022-10-05T16:54:56.736Z,13.59
2022-10-05T16:59:08.873Z,13.52
2022-10-05T17:02:41.592Z,13.43
2022-10-05T17:06:17.604Z,13.37
2022-10-05T17:10:17.985Z,13.31
2022-10-05T17:14:01.434Z,13.25
2022-10-05T17:17:57.171Z,13.21
2022-10-05T17:21:31.537Z,13.21
2022-10-05T17:25:00.954Z,13.16
2022-10-05T17:29:09.777Z,13.12
2022-10-05T17:32:36.224Z,13.05
2022-10-05T17:36:18.122Z,12.97
2022-10-05T17:39:49.105Z,12.88
2022-10-05T17:43:28.035Z,12.78
2022-10-05T17:47:55.852Z,12.72
2022-10-05T17:51:53.872Z,12.68
2022-10-05T17:55:33.018Z,12.66
2022-10-05T17:59:04.340Z,12.60
2022-10-05T18:02:39.933Z,12.45
2022-10-05T18:06:26.031Z,12.31
2022-10-05T18:09:58.757Z,12.15
2022-10-05T18:13:43.960Z,12.03
2022-10-05T18:17:41.594Z,11.97
2022-10-05T18:21:29.893Z,11.94
2022-10-05T18:25:07.107Z,11.95
2022-10-05T18:29:13.791Z,11.97
2022-10-05T18:32:52.464Z,11.95
2022-10-05T18:36:37.544Z,11.92
2022-10-05T18:40:12.442Z,11.87
2022-10-05T18:43:55.142Z,11.81
2022-10-05T18:48:13.188Z,11.72
2022-10-05T18:51:51.660Z,11.66
2022-10-05T18:55:20.940Z,11.64
2022-10-05T18:59:36.358Z,11.66
2022-10-05T19:03:03.188Z,11.71
2022-10-05T19:06:49.254Z,11.73
2022-10-05T19:10:45.996Z,11.75
2022-10-05T19:14:24.683Z,11.71
2022-10-05T19:18:12.346Z,11.71
2022-10-05T19:22:02.029Z,11.72
2022-10-05T19:26:31.303Z,11.77
2022-10-05T19:30:26.786Z,11.79
2022-10-05T19:33:56.713Z,11.80
2022-10-05T19:38:23.880Z,11.82
2022-10-05T19:42:09.630Z,11.82
2022-10-05T19:45:46.925Z,11.83
2022-10-05T19:49:11.746Z,11.83
2022-10-05T19:52:49.900Z,11.84
2022-10-05T19:56:25.800Z,11.88
2022-10-05T19:59:59.470Z,11.92
2022-10-05T20:03:41.116Z,11.93
2022-10-05T20:07:33.799Z,11.94
2022-10-05T20:11:10.691Z,11.95
2022-10-05T20:14:33.479Z,11.94
2022-10-05T20:18:55.503Z,11.93
2022-10-05T20:22:43.399Z,11.93
2022-10-05T20:26:23.495Z,12.00
2022-10-05T20:29:47.488Z,11.99
2022-10-05T20:33:41.477Z,11.98
2022-10-05T20:37:02.103Z,12.01
2022-10-05T20:40:40.068Z,12.00
2022-10-05T20:44:19.906Z,12.00
2022-10-05T20:47:52.430Z,11.96
2022-10-05T20:51:29.235Z,11.89
2022-10-05T20:55:11.324Z,11.84
2022-10-05T20:59:01.472Z,11.78
2022-10-05T21:02:43.534Z,11.73
2022-10-05T21:06:04.085Z,11.69
2022-10-05T21:09:42.549Z,11.61
2022-10-05T21:13:18.566Z,11.51
2022-10-05T21:16:54.413Z,11.41
2022-10-05T21:20:31.105Z,11.32
2022-10-05T21:24:09.945Z,11.25
2022-10-05T21:27:46.516Z,11.22
2022-10-05T21:31:21.978Z,11.19
2022-10-05T21:35:17.134Z,11.18
2022-10-05T21:38:56.552Z,11.15
2022-10-05T21:42:35.744Z,11.14
2022-10-05T21:45:56.686Z,11.12
2022-10-05T21:49:34.045Z,11.11
2022-10-05T21:53:14.639Z,11.10
2022-10-05T21:56:50.278Z,11.06
2022-10-05T22:00:23.643Z,11.03
2022-10-05T22:04:19.176Z,11.00
2022-10-05T22:07:40.139Z,11.01
2022-10-05T22:11:18.291Z,10.99
2022-10-05T22:15:12.869Z,10.97
2022-10-05T22:18:33.566Z,10.96
2022-10-05T22:22:12.042Z,10.93
2022-10-05T22:25:48.121Z,10.93
2022-10-05T22:29:27.334Z,10.87
2022-10-05T22:33:00.477Z,10.83
2022-10-05T22:36:37.987Z,10.80
2022-10-05T22:40:14.393Z,10.79
2022-10-05T22:43:52.062Z,10.76
2022-10-05T22:47:27.858Z,10.73
2022-10-05T22:51:05.135Z,10.69
2022-10-05T22:54:39.405Z,10.66
2022-10-05T22:58:18.085Z,10.64
2022-10-05T23:01:54.862Z,10.62
2022-10-05T23:05:32.451Z,10.62
2022-10-05T23:09:08.459Z,10.65
2022-10-05T23:12:56.101Z,10.70
2022-10-05T23:16:40.947Z,10.74
2022-10-05T23:20:01.776Z,10.73
2022-10-05T23:23:43.738Z,10.74
2022-10-05T23:27:15.171Z,10.77
2022-10-05T23:30:51.861Z,10.78
2022-10-05T23:34:28.817Z,10.77
2022-10-05T23:38:24.899Z,10.79
2022-10-05T23:41:45.919Z,10.82
2022-10-05T23:45:22.543Z,10.83
2022-10-05T23:48:59.415Z,10.88
2022-10-05T23:52:36.946Z,10.95
2022-10-05T23:56:13.340Z,10.99
